Time;durP1;ratioP1;P1;durP2;ratioP2;P2;SDS_P1;SDS_P2;PMS_P1;PMS_P2;Temp;Humidity;BMP_temperature;BMP_pressure;BME280_temperature;BME280_humidity;BME280_pressure;Samples;Min_cycle;Max_cycle;Signal;HPM_P1;HPM_P2
2022/03/19 00:00:55;;;;;;;21.40;7.53;;;3.30;82.70;;;;;;5034964;28;20200;-92
2022/03/19 00:03:20;;;;;;;14.97;7.10;;;3.30;82.70;;;;;;5035269;28;20227;-92
2022/03/19 00:05:47;;;;;;;21.03;8.33;;;3.20;82.60;;;;;;5034969;28;20172;-91
2022/03/19 00:08:16;;;;;;;20.57;9.70;;;3.20;82.50;;;;;;5035135;28;20214;-92
2022/03/19 00:10:42;;;;;;;27.90;13.57;;;3.20;82.40;;;;;;5017847;28;20193;-91
2022/03/19 00:13:07;;;;;;;30.90;14.50;;;3.10;82.20;;;;;;5034805;28;20174;-92
2022/03/19 00:15:34;;;;;;;27.53;12.63;;;3.10;82.00;;;;;;5035098;28;20185;-92
2022/03/19 00:17:59;;;;;;;22.73;10.40;;;3.10;81.90;;;;;;5034656;28;20224;-91
2022/03/19 00:20:25;;;;;;;30.57;10.87;;;3.10;81.70;;;;;;5016880;28;20274;-92
2022/03/19 00:22:51;;;;;;;19.43;9.00;;;3.00;81.80;;;;;;5016675;28;20184;-92
2022/03/19 00:25:17;;;;;;;24.60;9.57;;;3.10;81.80;;;;;;5017022;28;20269;-91
2022/03/19 00:27:42;;;;;;;25.33;9.73;;;3.00;81.80;;;;;;5034428;28;20299;-92
2022/03/19 00:30:09;;;;;;;21.43;9.87;;;3.00;82.00;;;;;;5016920;28;20180;-92
2022/03/19 00:32:35;;;;;;;33.93;10.63;;;3.10;82.60;;;;;;5016702;28;20188;-92
2022/03/19 00:35:02;;;;;;;29.03;10.03;;;3.10;83.40;;;;;;5034165;28;20177;-91
2022/03/19 00:37:28;;;;;;;24.07;9.20;;;3.10;83.70;;;;;;5034112;28;20201;-90
2022/03/19 00:39:54;;;;;;;26.60;8.97;;;3.00;83.60;;;;;;5034613;28;20247;-91
2022/03/19 00:42:19;;;;;;;24.07;9.30;;;3.00;83.60;;;;;;5034308;28;20170;-92
2022/03/19 00:44:47;;;;;;;24.63;9.33;;;3.00;83.80;;;;;;5016588;28;20173;-90
2022/03/19 00:47:13;;;;;;;26.93;8.57;;;3.10;83.80;;;;;;5016300;28;20250;-91
2022/03/19 00:49:38;;;;;;;32.80;10.30;;;2.90;83.60;;;;;;5016902;28;20181;-91
2022/03/19 00:52:04;;;;;;;22.27;8.77;;;3.00;84.00;;;;;;5034616;28;20692;-91
2022/03/19 00:54:30;;;;;;;26.17;9.10;;;3.00;83.90;;;;;;5034603;28;20173;-91
2022/03/19 00:56:55;;;;;;;25.57;9.43;;;3.00;84.30;;;;;;5034060;28;20279;-91
2022/03/19 00:59:21;;;;;;;26.37;8.83;;;3.00;84.40;;;;;;5033800;28;20246;-91
2022/03/19 01:01:47;;;;;;;23.70;8.90;;;2.90;84.50;;;;;;5033822;28;20175;-91
2022/03/19 01:04:12;;;;;;;23.53;8.63;;;2.90;84.50;;;;;;5033732;28;20650;-91
2022/03/19 01:06:38;;;;;;;27.80;8.13;;;2.90;84.60;;;;;;5033307;28;20209;-91
2022/03/19 01:09:03;;;;;;;23.17;9.27;;;2.80;84.50;;;;;;5033702;28;20215;-92
2022/03/19 01:11:29;;;;;;;24.00;8.27;;;2.70;84.20;;;;;;5033617;28;20646;-91
2022/03/19 01:13:55;;;;;;;21.00;9.73;;;2.60;83.90;;;;;;5034213;28;20223;-91
2022/03/19 01:16:22;;;;;;;23.73;10.80;;;2.50;83.90;;;;;;5033585;28;20197;-91
2022/03/19 01:18:49;;;;;;;21.57;8.40;;;2.40;84.30;;;;;;5015805;28;20580;-91
2022/03/19 01:21:15;;;;;;;19.33;8.90;;;2.30;84.70;;;;;;5033416;28;20176;-91
2022/03/19 01:23:41;;;;;;;19.03;8.13;;;2.20;85.20;;;;;;5015709;28;20746;-91
2022/03/19 01:26:06;;;;;;;28.93;8.90;;;2.00;85.40;;;;;;5032993;28;20194;-91
2022/03/19 01:28:32;;;;;;;27.63;8.60;;;2.00;85.80;;;;;;5033861;28;20189;-93
2022/03/19 01:30:58;;;;;;;29.73;9.23;;;1.90;86.00;;;;;;5018927;28;20195;-92
2022/03/19 01:33:23;;;;;;;28.00;9.23;;;1.70;86.40;;;;;;5017230;28;20179;-92
2022/03/19 01:35:49;;;;;;;27.63;8.83;;;1.70;86.90;;;;;;5016840;28;20180;-92
2022/03/19 01:38:15;;;;;;;19.90;8.40;;;1.70;87.20;;;;;;5033519;28;20207;-91
2022/03/19 01:40:40;;;;;;;26.40;9.47;;;1.70;87.40;;;;;;5033940;28;20177;-93
2022/03/19 01:43:06;;;;;;;26.43;8.77;;;1.60;87.60;;;;;;5033162;28;20179;-90
2022/03/19 01:45:32;;;;;;;27.07;9.20;;;1.50;87.80;;;;;;5033232;28;20181;-89
2022/03/19 01:47:57;;;;;;;31.20;9.60;;;1.40;88.00;;;;;;5015319;28;20229;-89
2022/03/19 01:50:25;;;;;;;22.60;8.30;;;1.40;88.30;;;;;;5015447;28;20188;-90
2022/03/19 01:52:51;;;;;;;22.60;8.97;;;1.30;88.40;;;;;;5015336;28;20187;-90
2022/03/19 01:55:20;;;;;;;20.63;8.03;;;1.20;88.60;;;;;;5015471;28;20180;-89
2022/03/19 01:57:47;;;;;;;21.30;9.07;;;1.00;88.70;;;;;;5016211;28;20202;-91
2022/03/19 02:00:17;;;;;;;19.87;8.67;;;1.00;89.00;;;;;;5015478;28;20650;-88
2022/03/19 02:02:45;;;;;;;21.67;8.27;;;1.00;89.30;;;;;;5032992;28;20240;-88
2022/03/19 02:05:14;;;;;;;25.67;9.93;;;1.00;89.50;;;;;;5033013;28;20220;-88
2022/03/19 02:07:40;;;;;;;27.93;8.73;;;1.10;89.70;;;;;;5032783;28;20629;-87
2022/03/19 02:10:07;;;;;;;27.93;9.53;;;1.20;89.90;;;;;;5015367;28;20591;-87
2022/03/19 02:12:33;;;;;;;19.13;7.97;;;1.40;90.10;;;;;;5015351;28;20178;-88
2022/03/19 02:14:58;;;;;;;28.67;9.97;;;1.40;90.00;;;;;;5032927;28;20184;-88
2022/03/19 02:17:24;;;;;;;26.27;7.87;;;1.40;90.00;;;;;;5015179;28;20197;-88
2022/03/19 02:19:52;;;;;;;27.70;8.23;;;1.30;89.90;;;;;;5032756;28;20209;-87
2022/03/19 02:22:24;;;;;;;25.57;8.30;;;1.30;89.90;;;;;;5032711;28;20178;-87
2022/03/19 02:27:35;;;;;;;19.37;6.53;;;1.50;89.50;;;;;;5033136;28;20226;-87
2022/03/19 02:30:02;;;;;;;24.90;7.37;;;1.60;89.00;;;;;;5032904;28;20172;-87
2022/03/19 02:32:28;;;;;;;26.60;7.70;;;1.50;88.70;;;;;;5015085;28;20215;-88
2022/03/19 02:34:54;;;;;;;20.27;7.03;;;1.50;88.60;;;;;;5015135;28;20208;-87
2022/03/19 02:37:20;;;;;;;27.40;7.73;;;1.40;88.50;;;;;;5017036;28;20223;-88
2022/03/19 02:39:45;;;;;;;19.00;7.37;;;1.40;88.50;;;;;;5036354;28;20226;-88
2022/03/19 02:42:14;;;;;;;22.10;7.00;;;1.40;88.60;;;;;;5019445;28;20180;-88
2022/03/19 02:44:40;;;;;;;27.53;7.13;;;1.40;88.50;;;;;;5018604;28;20180;-88
2022/03/19 02:47:07;;;;;;;21.40;6.97;;;1.40;88.50;;;;;;5018908;28;20199;-88
2022/03/19 02:49:33;;;;;;;23.53;7.17;;;1.50;88.60;;;;;;5036292;28;20218;-88
2022/03/19 02:51:59;;;;;;;20.53;6.70;;;1.60;88.50;;;;;;5036232;28;20177;-88
2022/03/19 02:54:27;;;;;;;15.80;6.07;;;1.60;88.50;;;;;;5018423;28;20270;-88
2022/03/19 02:56:53;;;;;;;27.43;7.63;;;1.70;88.40;;;;;;5036121;28;20578;-88
2022/03/19 02:59:24;;;;;;;22.63;7.63;;;1.70;88.40;;;;;;5018434;28;20233;-87
2022/03/19 03:01:59;;;;;;;26.40;7.23;;;1.80;88.30;;;;;;5036376;28;20165;-88
2022/03/19 03:04:25;;;;;;;22.53;7.47;;;1.70;88.30;;;;;;5018848;28;20195;-88
2022/03/19 03:06:52;;;;;;;21.07;6.80;;;1.70;88.30;;;;;;5018500;28;20229;-88
2022/03/19 03:09:20;;;;;;;17.83;8.20;;;1.70;88.20;;;;;;5018317;28;20227;-88
2022/03/19 03:11:45;;;;;;;21.33;7.27;;;1.60;88.30;;;;;;5036146;28;20179;-88
2022/03/19 03:14:13;;;;;;;24.60;7.20;;;1.60;88.30;;;;;;5018035;28;20668;-88
2022/03/19 03:16:40;;;;;;;20.20;7.13;;;1.60;88.30;;;;;;5018024;28;20202;-87
2022/03/19 03:19:07;;;;;;;24.23;7.40;;;1.60;88.40;;;;;;5017991;28;20216;-88
2022/03/19 03:21:34;;;;;;;24.73;7.47;;;1.50;88.30;;;;;;5017932;28;20656;-88
2022/03/19 03:24:01;;;;;;;21.53;6.57;;;1.50;88.30;;;;;;5018834;28;20271;-88
2022/03/19 03:26:27;;;;;;;20.10;6.70;;;1.50;88.30;;;;;;5035511;28;20192;-88
2022/03/19 03:28:53;;;;;;;25.97;7.87;;;1.40;88.30;;;;;;5017822;28;20264;-88
2022/03/19 03:31:19;;;;;;;28.30;7.77;;;1.40;88.40;;;;;;5017718;28;20277;-88
2022/03/19 03:33:44;;;;;;;23.27;7.17;;;1.30;88.40;;;;;;5017849;28;20182;-88
2022/03/19 03:36:10;;;;;;;31.47;7.83;;;1.40;88.50;;;;;;5035362;28;20178;-88
2022/03/19 03:38:36;;;;;;;25.47;6.53;;;1.30;88.50;;;;;;5035537;28;20203;-88
2022/03/19 03:41:02;;;;;;;18.47;7.10;;;1.30;88.60;;;;;;5035623;28;20202;-87
2022/03/19 03:43:27;;;;;;;23.43;6.70;;;1.30;88.60;;;;;;5017733;28;20224;-87
2022/03/19 03:45:53;;;;;;;18.00;7.47;;;1.30;88.70;;;;;;5017471;28;20642;-88
2022/03/19 03:48:19;;;;;;;22.70;6.73;;;1.30;88.60;;;;;;5034969;28;20185;-88
2022/03/19 03:50:49;;;;;;;20.27;6.57;;;1.20;88.60;;;;;;5017498;28;20178;-88
2022/03/19 03:53:15;;;;;;;22.70;7.20;;;1.10;88.50;;;;;;5017372;28;20178;-88
2022/03/19 03:55:40;;;;;;;20.23;6.37;;;1.10;88.60;;;;;;5035030;28;20205;-88
2022/03/19 03:58:08;;;;;;;18.27;7.13;;;1.10;88.70;;;;;;5017067;28;20254;-88
2022/03/19 04:00:35;;;;;;;26.67;7.00;;;1.10;88.70;;;;;;5035006;28;20584;-88
2022/03/19 04:03:00;;;;;;;19.37;7.17;;;1.10;88.80;;;;;;5017151;28;20665;-88
2022/03/19 04:05:26;;;;;;;16.57;5.87;;;1.10;88.80;;;;;;5035030;28;20166;-88
2022/03/19 04:07:52;;;;;;;21.83;7.30;;;1.00;88.90;;;;;;5016947;28;20737;-88
2022/03/19 04:10:18;;;;;;;21.13;6.10;;;1.00;88.90;;;;;;5016957;28;20177;-87
2022/03/19 04:12:44;;;;;;;30.60;7.30;;;1.00;88.90;;;;;;5017068;28;20183;-88
2022/03/19 04:15:10;;;;;;;21.03;7.00;;;1.00;89.00;;;;;;5016996;28;20622;-88
2022/03/19 04:17:37;;;;;;;26.10;6.50;;;1.00;89.00;;;;;;5016864;28;20204;-87
2022/03/19 04:20:05;;;;;;;13.97;6.10;;;1.00;89.10;;;;;;5016955;28;20185;-88
2022/03/19 04:22:42;;;;;;;20.60;6.73;;;1.10;89.10;;;;;;5016903;28;20237;-88
2022/03/19 04:25:13;;;;;;;26.53;6.57;;;1.10;89.00;;;;;;5034518;28;20154;-88
2022/03/19 04:27:42;;;;;;;19.83;6.17;;;1.00;89.00;;;;;;5016737;28;20558;-88
2022/03/19 04:30:12;;;;;;;27.40;7.57;;;1.00;88.90;;;;;;5016748;28;20174;-88
2022/03/19 04:32:42;;;;;;;26.03;7.80;;;1.00;89.00;;;;;;5016608;28;20646;-88
2022/03/19 04:37:58;;;;;;;22.00;7.60;;;1.00;89.20;;;;;;5034373;28;20276;-88
2022/03/19 04:40:23;;;;;;;30.43;7.93;;;1.10;89.30;;;;;;5034120;28;20182;-88
2022/03/19 04:42:49;;;;;;;21.90;7.23;;;1.20;89.30;;;;;;5034092;28;20518;-88
2022/03/19 04:45:15;;;;;;;20.10;6.77;;;1.10;89.30;;;;;;5016767;28;20196;-87
2022/03/19 04:47:40;;;;;;;22.70;7.70;;;1.10;89.30;;;;;;5016401;28;20195;-88
2022/03/19 04:50:06;;;;;;;30.53;7.40;;;1.20;89.40;;;;;;5034156;28;20175;-89
2022/03/19 04:52:34;;;;;;;22.77;7.17;;;1.20;89.40;;;;;;5016503;28;20172;-89
2022/03/19 04:55:00;;;;;;;24.03;8.17;;;1.20;89.50;;;;;;5033913;28;20255;-89
2022/03/19 04:57:27;;;;;;;25.13;7.13;;;1.20;89.40;;;;;;5016192;28;20195;-89
2022/03/19 04:59:54;;;;;;;22.30;6.67;;;1.30;89.50;;;;;;5032995;28;20200;-89
2022/03/19 05:02:20;;;;;;;29.07;7.70;;;1.30;89.50;;;;;;5016033;28;20224;-89
2022/03/19 05:04:46;;;;;;;27.23;8.67;;;1.30;89.40;;;;;;5015965;28;20593;-89
2022/03/19 05:07:11;;;;;;;25.87;6.43;;;1.30;89.40;;;;;;5033703;28;20216;-88
2022/03/19 05:12:41;;;;;;;27.83;6.83;;;1.30;89.40;;;;;;5034473;28;20589;-89
2022/03/19 05:15:11;;;;;;;28.50;7.07;;;1.30;89.40;;;;;;5015787;28;20543;-89
2022/03/19 05:17:38;;;;;;;25.30;6.80;;;1.30;89.30;;;;;;5015789;28;20199;-89
2022/03/19 05:20:05;;;;;;;24.73;7.47;;;1.30;89.30;;;;;;5015855;28;20183;-89
2022/03/19 05:22:31;;;;;;;26.23;6.60;;;1.20;89.30;;;;;;5033337;28;20227;-89
2022/03/19 05:24:57;;;;;;;17.63;6.40;;;1.20;89.30;;;;;;5033514;28;20182;-89
2022/03/19 05:27:24;;;;;;;23.17;6.60;;;1.20;89.30;;;;;;5015908;28;20231;-89
2022/03/19 05:29:49;;;;;;;22.03;6.80;;;1.20;89.30;;;;;;5015724;28;20185;-88
2022/03/19 05:32:15;;;;;;;18.23;6.83;;;1.20;89.20;;;;;;5015607;28;20263;-89
2022/03/19 05:34:41;;;;;;;20.63;7.43;;;1.10;89.10;;;;;;5015867;28;20239;-89
2022/03/19 05:37:07;;;;;;;25.00;7.00;;;1.20;89.20;;;;;;5015607;28;20256;-88
2022/03/19 05:39:33;;;;;;;25.50;7.43;;;1.20;89.20;;;;;;5015449;28;20207;-89
2022/03/19 05:41:59;;;;;;;25.80;7.90;;;1.20;88.90;;;;;;5016668;28;20176;-88
2022/03/19 05:44:25;;;;;;;22.30;7.83;;;1.20;88.90;;;;;;5015505;28;20175;-88
2022/03/19 05:46:51;;;;;;;22.27;7.53;;;1.10;88.80;;;;;;5015427;28;20228;-88
2022/03/19 05:49:17;;;;;;;21.13;7.73;;;1.10;88.90;;;;;;5015396;28;20268;-89
2022/03/19 05:51:43;;;;;;;27.27;8.23;;;1.00;89.00;;;;;;5015448;28;20187;-88
2022/03/19 05:54:10;;;;;;;26.07;9.07;;;1.10;89.10;;;;;;5015802;28;20178;-89
2022/03/19 05:56:36;;;;;;;30.07;8.07;;;1.20;89.30;;;;;;5015376;28;20692;-88
2022/03/19 05:59:04;;;;;;;18.10;7.30;;;1.30;89.30;;;;;;5015403;28;20208;-89
2022/03/19 06:01:30;;;;;;;21.77;8.63;;;1.30;89.30;;;;;;5015316;28;20225;-88
2022/03/19 06:03:59;;;;;;;24.97;8.03;;;1.30;89.20;;;;;;5015370;28;20587;-88
2022/03/19 06:06:28;;;;;;;22.33;8.30;;;1.20;89.10;;;;;;5032745;28;20218;-89
2022/03/19 06:08:54;;;;;;;27.87;9.03;;;1.10;89.00;;;;;;5015261;28;20263;-89
2022/03/19 06:11:20;;;;;;;22.37;7.87;;;0.90;89.10;;;;;;5017467;28;20217;-88
2022/03/19 06:13:45;;;;;;;31.70;9.50;;;0.80;89.20;;;;;;5019243;28;20554;-88
2022/03/19 06:16:11;;;;;;;24.67;8.70;;;0.70;89.30;;;;;;5019095;28;20184;-88
2022/03/19 06:18:37;;;;;;;23.07;9.93;;;0.60;89.50;;;;;;5036632;28;20292;-88
2022/03/19 06:21:03;;;;;;;24.83;9.80;;;0.80;89.70;;;;;;5019071;28;20235;-89
2022/03/19 06:23:29;;;;;;;33.10;10.77;;;0.90;89.90;;;;;;5036707;28;20175;-88
2022/03/19 06:25:55;;;;;;;26.17;10.97;;;1.10;90.10;;;;;;5036631;28;20171;-89
2022/03/19 06:28:20;;;;;;;25.53;10.77;;;1.20;90.30;;;;;;5019043;28;20180;-89
2022/03/19 06:30:46;;;;;;;30.90;11.10;;;1.30;90.30;;;;;;5018935;28;20219;-89
2022/03/19 06:33:12;;;;;;;35.53;11.40;;;1.50;90.40;;;;;;5036536;28;20179;-89
2022/03/19 06:38:27;;;;;;;18.20;10.07;;;1.60;90.40;;;;;;5036843;28;20258;-89
2022/03/19 06:40:52;;;;;;;28.23;10.93;;;1.60;90.40;;;;;;5036415;28;20678;-89
2022/03/19 06:43:18;;;;;;;28.93;11.27;;;1.60;90.40;;;;;;5036322;28;20223;-89
2022/03/19 06:45:44;;;;;;;30.63;11.00;;;1.70;90.50;;;;;;5018686;28;20268;-89
2022/03/19 06:48:09;;;;;;;32.53;10.67;;;1.80;90.50;;;;;;5036492;28;20203;-89
2022/03/19 06:50:35;;;;;;;28.10;9.53;;;1.90;90.50;;;;;;5036146;28;20180;-89
2022/03/19 06:53:05;;;;;;;24.93;9.53;;;2.00;90.50;;;;;;5018615;28;20231;-89
2022/03/19 06:55:32;;;;;;;31.77;8.87;;;2.10;90.40;;;;;;5036205;28;20188;-89
2022/03/19 06:57:58;;;;;;;26.63;9.13;;;2.20;90.40;;;;;;5018276;28;20257;-89
2022/03/19 07:00:24;;;;;;;34.53;9.93;;;2.30;90.30;;;;;;5018467;28;20180;-89
2022/03/19 07:02:51;;;;;;;28.30;10.00;;;2.30;90.10;;;;;;5018298;28;20275;-89
2022/03/19 07:05:20;;;;;;;29.07;8.53;;;2.30;90.10;;;;;;5018250;28;20273;-89
2022/03/19 07:07:46;;;;;;;21.80;8.50;;;2.40;90.20;;;;;;5017779;28;20250;-89
2022/03/19 07:10:13;;;;;;;20.80;8.23;;;2.50;90.20;;;;;;5018123;28;20230;-89
2022/03/19 07:12:57;;;;;;;28.60;8.57;;;2.60;90.10;;;;;;5018050;28;20234;-90
2022/03/19 07:15:27;;;;;;;25.63;8.43;;;2.80;90.00;;;;;;5017999;28;20174;-89
2022/03/19 07:17:52;;;;;;;24.40;7.50;;;2.80;89.90;;;;;;5018159;28;20211;-89
2022/03/19 07:20:18;;;;;;;20.17;7.90;;;3.00;89.80;;;;;;5018042;28;20182;-89
2022/03/19 07:22:48;;;;;;;27.27;7.40;;;3.10;89.60;;;;;;5016944;28;20231;-89
2022/03/19 07:25:14;;;;;;;24.17;7.53;;;3.30;89.30;;;;;;5035639;28;20171;-89
2022/03/19 07:27:39;;;;;;;21.60;6.97;;;3.30;89.10;;;;;;5017684;28;20580;-89
2022/03/19 07:30:05;;;;;;;23.07;7.63;;;3.50;89.10;;;;;;5017795;28;20180;-89
2022/03/19 07:32:31;;;;;;;25.97;6.87;;;3.60;88.90;;;;;;5017755;28;20191;-89
2022/03/19 07:34:56;;;;;;;23.10;6.10;;;3.70;88.40;;;;;;5018083;28;20184;-89
2022/03/19 07:37:22;;;;;;;23.30;6.13;;;3.90;88.30;;;;;;5018055;28;20324;-89
2022/03/19 07:39:47;;;;;;;16.37;4.97;;;4.10;87.80;;;;;;5017511;28;20282;-89
2022/03/19 07:42:13;;;;;;;24.83;5.83;;;4.30;87.20;;;;;;5017587;28;20177;-89
2022/03/19 07:44:38;;;;;;;16.20;4.50;;;4.30;86.00;;;;;;5017463;28;20307;-89
2022/03/19 07:47:04;;;;;;;9.20;3.70;;;4.40;86.00;;;;;;5017331;28;20216;-89
2022/03/19 07:49:29;;;;;;;19.13;5.20;;;4.50;85.50;;;;;;5035467;28;20647;-89
2022/03/19 07:51:55;;;;;;;10.57;3.70;;;4.70;85.70;;;;;;5035033;28;20181;-89
2022/03/19 07:54:27;;;;;;;14.87;4.27;;;4.80;85.10;;;;;;5017324;28;20177;-89
2022/03/19 07:56:53;;;;;;;15.80;5.33;;;4.80;84.50;;;;;;5035153;28;20307;-90
2022/03/19 07:59:20;;;;;;;13.37;4.53;;;4.90;84.80;;;;;;5034885;28;20283;-89
2022/03/19 08:01:48;;;;;;;15.30;5.13;;;5.00;84.10;;;;;;5017541;28;20662;-89
2022/03/19 08:04:13;;;;;;;16.13;4.30;;;5.10;84.40;;;;;;5017206;28;20252;-91
2022/03/19 08:06:39;;;;;;;15.67;4.20;;;5.10;83.50;;;;;;5034930;28;20224;-92
2022/03/19 08:09:06;;;;;;;19.60;5.13;;;5.20;83.40;;;;;;5035729;28;20172;-91
2022/03/19 08:11:33;;;;;;;19.70;4.40;;;5.30;83.00;;;;;;5035169;28;20184;-92
2022/03/19 08:13:59;;;;;;;10.00;3.93;;;5.40;82.30;;;;;;5017195;28;20658;-91
2022/03/19 08:16:24;;;;;;;12.10;4.40;;;5.50;82.80;;;;;;5016893;28;20225;-92
2022/03/19 08:18:50;;;;;;;12.83;4.03;;;5.50;82.50;;;;;;5034424;28;20231;-91
2022/03/19 08:21:16;;;;;;;10.37;4.47;;;5.70;82.60;;;;;;5016889;28;20177;-91
2022/03/19 08:23:42;;;;;;;11.13;3.70;;;5.70;81.80;;;;;;5017012;28;20188;-92
2022/03/19 08:26:07;;;;;;;14.27;4.43;;;5.80;82.20;;;;;;5034661;28;20252;-91
2022/03/19 08:28:33;;;;;;;10.47;4.77;;;5.80;81.60;;;;;;5016734;28;20178;-92
2022/03/19 08:30:58;;;;;;;12.07;3.80;;;5.90;81.40;;;;;;5034419;28;20175;-92
2022/03/19 08:33:27;;;;;;;16.43;3.87;;;6.00;81.10;;;;;;5034385;28;20199;-92
2022/03/19 08:35:52;;;;;;;16.10;4.20;;;6.10;81.10;;;;;;5034289;28;20207;-92
2022/03/19 08:41:02;;;;;;;10.37;3.63;;;6.30;80.30;;;;;;5034396;28;20162;-91
2022/03/19 08:43:27;;;;;;;14.87;3.73;;;6.40;79.80;;;;;;5034272;28;20161;-92
2022/03/19 08:45:53;;;;;;;16.00;4.47;;;6.60;79.60;;;;;;5034467;28;20199;-91
2022/03/19 08:48:19;;;;;;;11.27;4.13;;;6.70;80.50;;;;;;5016488;28;20211;-92
2022/03/19 08:50:45;;;;;;;13.07;4.27;;;6.90;79.70;;;;;;5016405;28;20200;-92
2022/03/19 08:53:12;;;;;;;12.93;3.43;;;6.90;78.60;;;;;;5034500;28;20172;-92
2022/03/19 08:55:37;;;;;;;12.07;3.77;;;7.00;79.20;;;;;;5034090;28;20187;-91
2022/03/19 08:58:03;;;;;;;9.83;3.37;;;7.00;77.30;;;;;;5033834;28;20205;-90
2022/03/19 09:00:28;;;;;;;19.20;6.60;;;7.10;77.00;;;;;;5016218;28;20180;-90
2022/03/19 09:02:57;;;;;;;13.17;4.30;;;7.20;77.00;;;;;;5033901;28;20176;-90
2022/03/19 09:05:23;;;;;;;14.93;3.13;;;7.30;76.30;;;;;;5016677;28;20226;-91
2022/03/19 09:07:49;;;;;;;16.63;3.93;;;7.40;75.90;;;;;;5033773;28;20204;-89
2022/03/19 09:10:15;;;;;;;8.70;3.07;;;7.40;75.50;;;;;;5016072;28;20161;-90
2022/03/19 09:12:41;;;;;;;8.40;3.20;;;7.60;74.70;;;;;;5016107;28;20172;-91
2022/03/19 09:15:09;;;;;;;9.40;3.80;;;7.70;75.80;;;;;;5033955;28;20635;-90
2022/03/19 09:17:35;;;;;;;13.50;3.80;;;7.70;75.10;;;;;;5016200;28;20201;-90
2022/03/19 09:20:01;;;;;;;10.80;3.90;;;7.90;76.10;;;;;;5016018;28;20235;-90
2022/03/19 09:22:29;;;;;;;6.23;2.93;;;8.10;75.10;;;;;;5015898;28;20172;-90
2022/03/19 09:24:55;;;;;;;11.33;2.83;;;8.10;72.50;;;;;;5033429;28;20200;-90
2022/03/19 09:27:20;;;;;;;10.77;3.93;;;8.10;72.70;;;;;;5015973;28;20196;-90
2022/03/19 09:29:46;;;;;;;14.20;3.87;;;8.20;72.30;;;;;;5015811;28;20200;-90
2022/03/19 09:32:12;;;;;;;7.07;2.50;;;8.30;72.60;;;;;;5015655;28;20722;-90
2022/03/19 09:34:38;;;;;;;10.47;3.23;;;8.40;72.30;;;;;;5015684;28;20173;-90
2022/03/19 09:37:03;;;;;;;11.90;3.53;;;8.40;72.50;;;;;;5015561;28;20701;-90
2022/03/19 09:39:29;;;;;;;9.20;3.13;;;8.50;72.50;;;;;;5015759;28;20199;-90
2022/03/19 09:41:55;;;;;;;15.27;3.73;;;8.50;71.20;;;;;;5015667;28;20177;-91
2022/03/19 09:44:25;;;;;;;6.63;2.20;;;8.70;70.90;;;;;;5033289;28;20175;-92
2022/03/19 09:46:51;;;;;;;8.50;2.50;;;8.80;70.30;;;;;;5015108;28;20238;-91
2022/03/19 09:49:16;;;;;;;8.03;2.80;;;8.80;67.20;;;;;;5033690;28;20180;-93
2022/03/19 09:51:50;;;;;;;8.87;3.43;;;9.00;68.70;;;;;;5033532;28;20169;-91
2022/03/19 09:54:15;;;;;;;7.17;2.30;;;9.00;67.20;;;;;;5015872;28;20172;-92
2022/03/19 09:56:41;;;;;;;7.77;2.83;;;9.00;68.50;;;;;;5015543;28;20193;-91
2022/03/19 09:59:07;;;;;;;9.30;2.40;;;9.10;69.10;;;;;;5015612;28;20279;-91
2022/03/19 10:01:33;;;;;;;8.27;2.80;;;9.30;68.60;;;;;;5015439;28;20200;-90
2022/03/19 10:04:04;;;;;;;4.50;2.10;;;9.50;68.80;;;;;;5033108;28;20568;-89
2022/03/19 10:09:20;;;;;;;6.00;2.50;;;9.50;66.00;;;;;;5033594;28;20183;-90
2022/03/19 10:11:51;;;;;;;7.87;2.47;;;9.60;66.90;;;;;;5015401;28;20180;-91
2022/03/19 10:14:22;;;;;;;5.90;2.00;;;9.50;66.10;;;;;;5032890;28;20179;-91
2022/03/19 10:16:51;;;;;;;9.03;2.30;;;9.80;64.70;;;;;;5033189;28;20213;-89
2022/03/19 10:19:17;;;;;;;4.57;2.07;;;9.90;66.60;;;;;;5016011;28;20196;-91
2022/03/19 10:21:44;;;;;;;5.03;2.10;;;9.80;63.60;;;;;;5015262;28;20173;-91
2022/03/19 10:24:24;;;;;;;2.73;1.70;;;9.90;65.60;;;;;;5032918;28;20176;-90
2022/03/19 10:26:50;;;;;;;4.17;1.87;;;9.90;63.20;;;;;;5032762;28;20675;-91
2022/03/19 10:29:22;;;;;;;6.27;2.13;;;10.10;63.60;;;;;;5015085;28;20181;-90
2022/03/19 10:31:47;;;;;;;2.30;1.40;;;10.00;63.40;;;;;;5015099;28;20218;-91
2022/03/19 10:34:14;;;;;;;3.50;1.73;;;10.00;62.10;;;;;;5015009;28;20180;-90
2022/03/19 10:36:43;;;;;;;5.33;1.80;;;10.00;63.30;;;;;;5014903;28;20732;-91
2022/03/19 10:39:13;;;;;;;3.50;1.80;;;10.20;63.10;;;;;;5032747;28;20217;-90
2022/03/19 10:41:39;;;;;;;1.90;1.10;;;10.30;62.20;;;;;;5015085;28;20177;-91
2022/03/19 10:44:12;;;;;;;3.23;1.57;;;10.40;61.90;;;;;;5015015;28;20177;-90
2022/03/19 10:46:38;;;;;;;4.53;2.00;;;10.60;63.70;;;;;;5015379;28;20204;-90
2022/03/19 10:49:11;;;;;;;3.80;1.77;;;10.50;61.30;;;;;;5015522;28;20183;-90
2022/03/19 10:51:38;;;;;;;5.03;1.97;;;10.30;58.90;;;;;;5032682;28;20240;-90
2022/03/19 10:54:04;;;;;;;8.93;1.77;;;10.30;59.50;;;;;;5015418;28;20185;-91
2022/03/19 10:56:30;;;;;;;6.77;1.83;;;10.30;58.90;;;;;;5032488;28;20199;-91
2022/03/19 10:58:56;;;;;;;3.57;1.47;;;10.50;60.70;;;;;;5017754;28;20287;-90
2022/03/19 11:01:22;;;;;;;5.37;1.60;;;10.70;59.60;;;;;;5036622;28;20536;-91
2022/03/19 11:03:50;;;;;;;4.33;1.60;;;10.60;58.40;;;;;;5018822;28;20173;-91
2022/03/19 11:06:19;;;;;;;5.20;1.87;;;10.70;57.90;;;;;;5035877;28;20199;-91
2022/03/19 11:08:46;;;;;;;4.17;1.50;;;10.80;59.40;;;;;;5018307;28;20173;-91
2022/03/19 11:11:19;;;;;;;1.73;1.33;;;10.60;58.60;;;;;;5035939;28;20171;-91
2022/03/19 11:13:46;;;;;;;2.57;0.90;;;10.80;58.20;;;;;;5035856;28;20549;-91
2022/03/19 11:16:13;;;;;;;1.50;0.90;;;10.70;54.50;;;;;;5035772;28;20179;-91
2022/03/19 11:18:42;;;;;;;3.03;0.90;;;10.80;57.30;;;;;;5035748;28;20247;-92
2022/03/19 11:21:09;;;;;;;1.80;1.00;;;10.80;55.60;;;;;;5035959;28;20180;-92
2022/03/19 11:23:51;;;;;;;3.07;1.33;;;10.80;56.10;;;;;;5018321;28;20173;-93
2022/03/19 11:26:23;;;;;;;2.47;1.27;;;10.90;56.30;;;;;;5036019;28;20282;-92
2022/03/19 11:28:50;;;;;;;1.77;1.37;;;11.00;56.60;;;;;;5018540;28;20545;-92
2022/03/19 11:31:26;;;;;;;1.53;1.27;;;10.80;53.80;;;;;;5018378;28;20177;-91
2022/03/19 11:34:12;;;;;;;8.90;1.60;;;10.70;53.90;;;;;;5018148;28;20200;-92
2022/03/19 11:37:13;;;;;;;3.03;1.47;;;10.70;55.60;;;;;;5018586;28;20196;-92
2022/03/19 11:39:59;;;;;;;1.77;1.50;;;10.80;57.60;;;;;;4958357;28;20198;-91
2022/03/19 11:42:32;;;;;;;2.13;1.30;;;10.90;57.60;;;;;;5013568;28;20180;-93
2022/03/19 11:45:09;;;;;;;2.17;1.13;;;11.10;55.50;;;;;;5035528;28;20252;-90
2022/03/19 11:47:35;;;;;;;1.60;1.40;;;10.80;54.50;;;;;;5035217;28;20206;-90
2022/03/19 11:50:05;;;;;;;2.13;1.40;;;11.00;55.80;;;;;;5017333;28;20666;-91
2022/03/19 11:52:30;;;;;;;1.13;1.07;;;11.10;56.30;;;;;;5017434;28;20184;-89
2022/03/19 11:55:05;;;;;;;2.17;1.20;;;11.00;55.00;;;;;;5035033;28;20172;-90
2022/03/19 11:57:45;;;;;;;2.10;1.50;;;11.10;56.40;;;;;;5034967;28;20184;-90
2022/03/19 12:00:13;;;;;;;3.37;1.30;;;10.90;54.00;;;;;;5034872;28;20215;-90
2022/03/19 12:03:09;;;;;;;2.07;1.20;;;11.00;56.70;;;;;;5017258;28;20173;-92
2022/03/19 12:05:40;;;;;;;2.97;1.57;;;11.20;57.50;;;;;;5017139;28;20164;-91
2022/03/19 12:08:08;;;;;;;1.07;0.90;;;11.10;55.60;;;;;;5016798;28;20358;-91
2022/03/19 12:10:43;;;;;;;2.97;1.20;;;10.90;54.00;;;;;;5016977;28;20188;-90
2022/03/19 12:13:27;;;;;;;2.43;1.27;;;10.90;55.70;;;;;;5018101;28;20164;-91
2022/03/19 12:15:57;;;;;;;1.50;1.20;;;10.90;57.20;;;;;;5034669;28;20176;-90
2022/03/19 12:18:33;;;;;;;5.80;1.27;;;10.90;57.20;;;;;;5016703;28;20235;-91
2022/03/19 12:21:01;;;;;;;0.80;0.80;;;10.80;55.10;;;;;;5035063;28;20195;-91
2022/03/19 12:23:42;;;;;;;2.00;0.93;;;10.80;56.10;;;;;;5016935;28;20204;-90
2022/03/19 12:26:10;;;;;;;3.13;1.80;;;10.70;54.30;;;;;;5034610;28;20196;-90
2022/03/19 12:28:36;;;;;;;0.90;0.90;;;10.60;55.70;;;;;;5034319;28;20169;-90
2022/03/19 12:31:11;;;;;;;4.63;2.13;;;10.70;56.70;;;;;;5034767;28;20646;-90
2022/03/19 12:33:38;;;;;;;1.60;1.50;;;10.70;58.60;;;;;;5034575;28;20264;-90
2022/03/19 12:36:15;;;;;;;2.43;1.37;;;10.90;57.10;;;;;;5034115;28;20172;-90
2022/03/19 12:38:41;;;;;;;2.37;1.47;;;10.70;57.30;;;;;;5034055;28;20193;-91
2022/03/19 12:41:31;;;;;;;1.50;1.30;;;10.80;56.80;;;;;;5034281;28;20191;-90
2022/03/19 12:43:59;;;;;;;3.67;1.30;;;11.00;55.50;;;;;;5034270;28;20149;-90
2022/03/19 12:46:35;;;;;;;1.17;1.17;;;11.00;56.80;;;;;;5016289;28;20196;-91
2022/03/19 12:49:08;;;;;;;2.50;0.90;;;10.80;54.00;;;;;;5034064;28;20553;-89
2022/03/19 12:51:36;;;;;;;4.43;1.67;;;10.80;56.70;;;;;;5016334;28;20685;-90
2022/03/19 12:54:17;;;;;;;4.63;1.57;;;10.70;55.80;;;;;;5033959;28;20179;-90
2022/03/19 12:56:43;;;;;;;3.03;1.93;;;10.70;55.90;;;;;;5016059;28;20295;-90
2022/03/19 12:59:22;;;;;;;3.13;1.40;;;10.60;58.10;;;;;;5033819;28;20355;-91
2022/03/19 13:01:48;;;;;;;1.93;1.17;;;10.70;58.50;;;;;;5034104;28;20168;-91
2022/03/19 13:04:28;;;;;;;1.30;1.10;;;10.80;59.20;;;;;;5033928;28;20204;-90
2022/03/19 13:06:55;;;;;;;2.93;1.00;;;10.70;59.00;;;;;;5033531;28;20212;-90